Time;durP1;ratioP1;P1;durP2;ratioP2;P2;SDS_P1;SDS_P2;PMS_P1;PMS_P2;Temp;Humidity;BMP_temperature;BMP_pressure;BME280_temperature;BME280_humidity;BME280_pressure;Samples;Min_cycle;Max_cycle;Signal;HPM_P1;HPM_P2
2021/11/29 00:02:27;;;;;;;1.77;1.30;;;16.10;99.90;;;;;;6206063;23;20706;-67
2021/11/29 00:04:58;;;;;;;1.63;1.53;;;16.10;99.90;;;;;;6210029;23;20405;-67
2021/11/29 00:07:31;;;;;;;1.37;1.27;;;16.10;99.90;;;;;;6208732;23;20917;-66
2021/11/29 00:10:03;;;;;;;1.40;1.30;;;16.00;99.90;;;;;;6205369;23;20409;-67
2021/11/29 00:12:34;;;;;;;1.47;1.17;;;15.90;99.90;;;;;;6208281;23;20934;-66
2021/11/29 00:15:06;;;;;;;1.13;1.00;;;15.90;99.90;;;;;;6210505;23;20477;-68
2021/11/29 00:17:37;;;;;;;1.07;1.00;;;15.90;99.90;;;;;;6207824;23;20417;-66
2021/11/29 00:20:11;;;;;;;1.00;0.83;;;15.90;99.90;;;;;;6207675;23;20416;-67
2021/11/29 00:22:43;;;;;;;1.00;0.90;;;15.80;99.90;;;;;;6208851;23;20419;-67
2021/11/29 00:25:15;;;;;;;1.30;1.20;;;15.80;99.90;;;;;;6207769;23;20493;-66
2021/11/29 00:27:46;;;;;;;1.23;1.13;;;15.80;99.90;;;;;;6206153;23;20487;-67
2021/11/29 00:30:17;;;;;;;1.30;1.20;;;15.70;99.90;;;;;;6206140;23;20448;-67
2021/11/29 00:32:48;;;;;;;2.30;1.20;;;15.70;99.90;;;;;;6207982;23;20694;-66
2021/11/29 00:35:19;;;;;;;1.43;1.33;;;15.80;99.90;;;;;;6209375;23;20413;-66
2021/11/29 00:37:52;;;;;;;1.23;1.20;;;15.70;99.90;;;;;;6205957;23;20413;-67
2021/11/29 00:40:23;;;;;;;1.20;1.20;;;15.70;99.90;;;;;;6207521;23;20804;-66
2021/11/29 00:42:53;;;;;;;1.50;1.40;;;15.70;99.90;;;;;;6210341;23;20415;-66
2021/11/29 00:45:25;;;;;;;1.30;1.20;;;15.60;99.90;;;;;;6208026;23;20433;-66
2021/11/29 00:47:56;;;;;;;1.03;0.93;;;15.60;99.90;;;;;;6206111;23;20421;-67
2021/11/29 00:50:27;;;;;;;1.40;1.30;;;15.60;99.90;;;;;;6210802;23;20533;-68
2021/11/29 00:52:59;;;;;;;1.10;1.10;;;15.60;99.90;;;;;;6209743;23;20415;-66
2021/11/29 00:55:30;;;;;;;1.00;1.00;;;15.60;99.90;;;;;;6209174;23;20569;-67
2021/11/29 00:58:03;;;;;;;1.27;1.20;;;15.50;99.90;;;;;;6207929;23;20420;-66
2021/11/29 01:00:34;;;;;;;1.87;1.10;;;15.40;99.90;;;;;;6207683;23;20570;-67
2021/11/29 01:03:05;;;;;;;1.10;1.10;;;15.40;99.90;;;;;;6209088;23;20409;-67
2021/11/29 01:05:36;;;;;;;1.60;1.20;;;15.50;99.90;;;;;;6211084;23;20860;-68
2021/11/29 01:08:09;;;;;;;1.43;1.00;;;15.50;99.90;;;;;;6207683;23;20413;-68
2021/11/29 01:10:40;;;;;;;1.70;1.40;;;15.50;99.90;;;;;;6209180;23;20500;-67
2021/11/29 01:13:11;;;;;;;2.00;1.07;;;15.40;99.90;;;;;;6204799;23;20504;-68
2021/11/29 01:15:43;;;;;;;1.13;1.13;;;15.40;99.90;;;;;;6210048;23;20600;-68
2021/11/29 01:18:14;;;;;;;3.10;1.30;;;15.50;99.90;;;;;;6206104;23;20420;-67
2021/11/29 01:20:47;;;;;;;2.20;1.13;;;15.50;99.90;;;;;;6206647;23;20930;-67
2021/11/29 01:23:21;;;;;;;1.40;1.30;;;15.40;99.90;;;;;;6208990;23;20415;-67
2021/11/29 01:25:53;;;;;;;1.50;1.40;;;15.50;99.90;;;;;;6211655;23;20422;-67
2021/11/29 01:28:25;;;;;;;1.70;1.60;;;15.40;99.90;;;;;;6206539;23;20409;-67
2021/11/29 01:30:56;;;;;;;1.33;1.23;;;15.40;99.90;;;;;;6207654;23;20409;-66
2021/11/29 01:33:27;;;;;;;1.53;1.30;;;15.40;99.90;;;;;;6208493;23;20409;-68
2021/11/29 01:35:58;;;;;;;1.20;1.10;;;15.40;99.90;;;;;;6211445;23;20508;-68
2021/11/29 01:38:31;;;;;;;2.90;2.70;;;15.40;99.90;;;;;;6210472;23;20800;-68
2021/11/29 01:41:03;;;;;;;1.87;1.30;;;15.40;99.90;;;;;;6209532;23;20424;-68
2021/11/29 01:43:34;;;;;;;1.40;1.30;;;15.30;99.90;;;;;;6208486;23;20409;-68
2021/11/29 01:46:06;;;;;;;1.37;1.27;;;15.40;99.90;;;;;;6211234;23;20409;-68
2021/11/29 01:48:37;;;;;;;1.33;1.23;;;15.30;99.90;;;;;;6197063;23;20459;-69
2021/11/29 01:51:08;;;;;;;1.20;1.10;;;15.30;99.90;;;;;;6209154;23;20646;-69
2021/11/29 01:53:41;;;;;;;1.23;1.13;;;15.30;99.90;;;;;;6208637;23;20419;-70
2021/11/29 01:56:13;;;;;;;2.07;1.80;;;15.20;99.90;;;;;;6211271;23;20958;-67
2021/11/29 01:58:44;;;;;;;1.20;1.10;;;15.30;99.90;;;;;;6204589;23;20409;-70
2021/11/29 02:01:18;;;;;;;2.30;1.40;;;15.30;99.90;;;;;;6209516;23;20409;-69
2021/11/29 02:03:51;;;;;;;1.40;1.30;;;15.30;99.90;;;;;;6210333;23;20417;-77
2021/11/29 02:06:22;;;;;;;1.47;1.10;;;15.40;99.90;;;;;;6208111;23;20415;-76
2021/11/29 02:08:55;;;;;;;1.40;1.30;;;15.30;99.90;;;;;;6210756;23;20421;-72
2021/11/29 02:11:28;;;;;;;1.40;1.30;;;15.40;99.90;;;;;;6210007;23;20409;-73
2021/11/29 02:14:00;;;;;;;1.53;1.43;;;15.30;99.90;;;;;;6211153;23;20415;-72
2021/11/29 02:16:32;;;;;;;1.53;1.43;;;15.30;99.90;;;;;;6209323;23;20726;-75
2021/11/29 02:19:04;;;;;;;1.23;1.17;;;15.30;99.90;;;;;;6205574;23;20947;-71
2021/11/29 02:21:37;;;;;;;1.10;1.10;;;15.30;99.90;;;;;;6209114;23;20416;-71
2021/11/29 02:24:10;;;;;;;1.50;1.40;;;15.30;99.90;;;;;;6209753;23;20444;-70
2021/11/29 02:26:42;;;;;;;1.40;0.83;;;15.30;99.90;;;;;;6209418;23;20415;-70
2021/11/29 02:29:15;;;;;;;1.40;1.30;;;15.30;99.90;;;;;;6207061;23;20563;-67
2021/11/29 02:31:48;;;;;;;2.40;1.63;;;15.30;99.90;;;;;;6205777;23;20894;-70
2021/11/29 02:34:23;;;;;;;1.53;1.43;;;15.30;99.90;;;;;;6207946;23;20420;-72
2021/11/29 02:36:58;;;;;;;1.67;1.57;;;15.30;99.90;;;;;;6208465;23;20756;-70
2021/11/29 02:39:29;;;;;;;1.57;1.40;;;15.40;99.90;;;;;;6207249;23;20491;-68
2021/11/29 02:42:05;;;;;;;1.63;1.50;;;15.40;99.90;;;;;;6210630;23;20439;-65
2021/11/29 02:44:36;;;;;;;2.00;1.40;;;15.30;99.90;;;;;;6207694;23;20479;-66
2021/11/29 02:47:07;;;;;;;1.43;1.33;;;15.30;99.90;;;;;;6205917;23;20752;-67
2021/11/29 02:49:38;;;;;;;1.40;1.30;;;15.30;99.90;;;;;;6207684;23;20552;-67
2021/11/29 02:52:13;;;;;;;1.30;1.20;;;15.30;99.90;;;;;;6208365;23;21094;-66
2021/11/29 02:54:45;;;;;;;1.90;1.20;;;15.30;99.90;;;;;;6210265;23;20745;-69
2021/11/29 02:57:18;;;;;;;1.37;1.20;;;15.30;99.90;;;;;;6208815;23;20400;-67
2021/11/29 02:59:49;;;;;;;1.17;1.07;;;15.30;99.90;;;;;;6206120;23;20500;-68
2021/11/29 03:02:22;;;;;;;3.30;1.77;;;15.40;99.90;;;;;;6205760;23;20511;-68
2021/11/29 03:04:53;;;;;;;1.47;1.30;;;15.40;99.90;;;;;;6208706;23;20417;-67
2021/11/29 03:07:26;;;;;;;1.47;1.30;;;15.30;99.90;;;;;;6208013;23;20409;-69
2021/11/29 03:09:57;;;;;;;1.87;1.47;;;15.40;99.90;;;;;;6207960;23;20441;-67
2021/11/29 03:12:28;;;;;;;1.53;1.43;;;15.40;99.90;;;;;;6210529;23;20408;-68
2021/11/29 03:14:58;;;;;;;1.47;1.37;;;15.30;99.90;;;;;;6207106;23;20741;-68
2021/11/29 03:17:29;;;;;;;2.00;1.43;;;15.40;99.90;;;;;;6205808;23;20409;-68
2021/11/29 03:20:00;;;;;;;1.93;1.27;;;15.40;99.90;;;;;;6205628;23;20414;-68
2021/11/29 03:22:32;;;;;;;2.50;1.60;;;15.40;99.90;;;;;;6208625;23;20440;-68
2021/11/29 03:25:10;;;;;;;1.10;1.00;;;15.40;99.90;;;;;;6205823;23;20413;-68
2021/11/29 03:27:41;;;;;;;1.37;1.27;;;15.40;99.90;;;;;;6206997;23;20409;-68
2021/11/29 03:30:13;;;;;;;1.00;1.00;;;15.40;99.90;;;;;;6208275;23;20447;-68
2021/11/29 03:32:44;;;;;;;1.97;1.27;;;15.40;99.90;;;;;;6210115;23;20501;-67
2021/11/29 03:35:15;;;;;;;1.50;1.40;;;15.40;99.90;;;;;;6210048;23;20409;-68
2021/11/29 03:37:47;;;;;;;1.70;1.60;;;15.40;99.90;;;;;;6208259;23;20564;-68
2021/11/29 03:40:18;;;;;;;1.40;1.30;;;15.40;99.90;;;;;;6203073;23;20405;-68
2021/11/29 03:42:49;;;;;;;2.57;1.43;;;15.40;99.90;;;;;;6207213;23;20417;-68
2021/11/29 03:45:20;;;;;;;1.83;1.23;;;15.40;99.90;;;;;;6210153;23;20428;-68
2021/11/29 03:47:51;;;;;;;1.57;1.47;;;15.50;99.90;;;;;;6207837;23;20438;-68
2021/11/29 03:50:22;;;;;;;1.30;1.20;;;15.40;99.90;;;;;;6207966;23;20777;-68
2021/11/29 03:52:54;;;;;;;1.57;1.10;;;15.40;99.90;;;;;;6204369;23;20428;-69
2021/11/29 03:55:25;;;;;;;1.60;1.50;;;15.40;99.90;;;;;;6203623;23;20522;-69
2021/11/29 03:57:56;;;;;;;1.87;1.77;;;15.40;99.90;;;;;;6206318;23;20409;-68
2021/11/29 04:00:27;;;;;;;1.43;1.30;;;15.40;99.90;;;;;;6206037;23;20404;-68
2021/11/29 04:02:58;;;;;;;1.33;1.23;;;15.40;99.90;;;;;;6202438;23;20535;-69
2021/11/29 04:05:29;;;;;;;2.33;1.43;;;15.30;99.90;;;;;;6207937;23;20476;-69
2021/11/29 04:08:01;;;;;;;1.17;1.07;;;15.30;99.90;;;;;;6207172;23;20514;-69
2021/11/29 04:10:39;;;;;;;1.13;1.10;;;15.30;99.90;;;;;;6206577;23;20451;-68
2021/11/29 04:13:11;;;;;;;1.80;1.10;;;15.30;99.90;;;;;;6210011;23;20897;-68
2021/11/29 04:15:44;;;;;;;2.13;1.20;;;15.30;99.90;;;;;;6206411;23;20445;-70
2021/11/29 04:18:15;;;;;;;1.40;1.30;;;15.30;99.90;;;;;;6206193;23;20425;-68
2021/11/29 04:20:46;;;;;;;2.20;1.30;;;15.20;99.90;;;;;;6210565;23;20496;-68
2021/11/29 04:23:19;;;;;;;1.80;1.33;;;15.30;99.90;;;;;;6208057;23;20417;-69
2021/11/29 04:25:53;;;;;;;1.20;1.00;;;15.30;99.90;;;;;;6212193;23;20775;-67
2021/11/29 04:28:24;;;;;;;1.37;1.27;;;15.40;99.90;;;;;;6206408;23;20885;-67
2021/11/29 04:30:56;;;;;;;1.83;1.40;;;15.30;99.90;;;;;;6208282;23;20962;-67
2021/11/29 04:33:26;;;;;;;1.03;1.03;;;15.30;99.90;;;;;;6209580;23;20741;-69
2021/11/29 04:35:57;;;;;;;1.50;1.40;;;15.30;99.90;;;;;;6210782;23;20408;-68
2021/11/29 04:38:30;;;;;;;1.30;1.17;;;15.20;99.90;;;;;;6212012;23;20415;-67
2021/11/29 04:41:01;;;;;;;1.47;1.37;;;15.10;99.90;;;;;;6210071;23;20405;-67
2021/11/29 04:43:32;;;;;;;1.67;1.40;;;15.10;99.90;;;;;;6209925;23;20688;-68
2021/11/29 04:46:05;;;;;;;2.70;1.20;;;15.10;99.90;;;;;;6212274;23;20413;-68
2021/11/29 04:48:37;;;;;;;1.50;1.40;;;15.20;99.90;;;;;;6207112;23;20860;-68
2021/11/29 04:51:08;;;;;;;1.30;1.20;;;15.30;99.90;;;;;;6209836;23;20761;-68
2021/11/29 04:53:41;;;;;;;1.07;1.00;;;15.30;99.90;;;;;;6209362;23;20420;-67
2021/11/29 04:56:12;;;;;;;1.60;1.27;;;15.20;99.90;;;;;;6210252;23;20421;-68
2021/11/29 04:58:43;;;;;;;1.20;1.10;;;15.30;99.90;;;;;;6208175;23;20409;-66
2021/11/29 05:01:14;;;;;;;1.50;1.40;;;15.20;99.90;;;;;;6208823;23;20405;-67
2021/11/29 05:03:45;;;;;;;1.33;1.20;;;15.10;99.90;;;;;;6209849;23;20574;-67
2021/11/29 05:06:16;;;;;;;1.83;1.70;;;15.20;99.90;;;;;;6208409;23;20527;-67
2021/11/29 05:08:49;;;;;;;1.40;1.30;;;15.10;99.90;;;;;;6211739;23;20419;-67
2021/11/29 05:11:20;;;;;;;1.87;1.53;;;15.10;99.90;;;;;;6209898;23;20443;-67
2021/11/29 05:13:50;;;;;;;2.00;1.27;;;15.00;99.90;;;;;;6212905;23;20493;-68
2021/11/29 05:16:21;;;;;;;1.40;1.30;;;15.00;99.90;;;;;;6209144;23;20483;-69
2021/11/29 05:18:52;;;;;;;1.43;1.23;;;15.00;99.90;;;;;;6207299;23;20445;-69
2021/11/29 05:21:24;;;;;;;1.70;1.60;;;15.00;99.90;;;;;;6211898;23;20520;-69
2021/11/29 05:23:57;;;;;;;1.90;1.70;;;15.00;99.90;;;;;;6209051;23;20507;-68
2021/11/29 05:26:29;;;;;;;1.53;1.30;;;15.10;99.90;;;;;;6207362;23;20429;-68
2021/11/29 05:29:01;;;;;;;1.53;1.40;;;15.10;99.90;;;;;;6207110;23;20410;-69
2021/11/29 05:31:32;;;;;;;1.80;1.60;;;15.20;99.90;;;;;;6205988;23;20474;-68
2021/11/29 05:34:03;;;;;;;1.60;1.50;;;15.10;99.90;;;;;;6210680;23;20413;-69
2021/11/29 05:36:33;;;;;;;1.87;1.50;;;15.00;99.90;;;;;;6209500;23;20524;-68
2021/11/29 05:39:06;;;;;;;1.63;1.50;;;15.10;99.90;;;;;;6209144;23;20409;-67
2021/11/29 05:41:37;;;;;;;1.63;1.20;;;15.10;99.90;;;;;;6211859;23;20416;-68
2021/11/29 05:44:10;;;;;;;2.47;1.67;;;15.10;99.90;;;;;;6200617;23;20519;-68
2021/11/29 05:46:41;;;;;;;1.97;1.40;;;15.10;99.90;;;;;;6208968;23;20409;-67
2021/11/29 05:49:12;;;;;;;2.20;1.60;;;15.00;99.90;;;;;;6209647;23;20408;-68
2021/11/29 05:51:44;;;;;;;4.70;1.80;;;15.00;99.90;;;;;;6206755;23;20452;-67
2021/11/29 05:54:16;;;;;;;1.53;1.43;;;15.00;99.90;;;;;;6206500;23;20691;-68
2021/11/29 05:56:47;;;;;;;2.83;1.50;;;15.10;99.90;;;;;;6211682;23;20500;-68
2021/11/29 05:59:21;;;;;;;1.30;1.20;;;15.10;99.90;;;;;;6207297;23;20416;-68
2021/11/29 06:01:52;;;;;;;2.80;1.70;;;15.10;99.90;;;;;;6206871;23;20424;-67
2021/11/29 06:04:23;;;;;;;2.00;1.60;;;15.10;99.90;;;;;;6208651;23;20885;-67
2021/11/29 06:06:54;;;;;;;2.57;1.50;;;15.00;99.90;;;;;;6211155;23;20409;-67
2021/11/29 06:09:26;;;;;;;1.90;1.40;;;15.00;99.90;;;;;;6208440;23;20419;-67
2021/11/29 06:11:57;;;;;;;1.30;1.20;;;15.00;99.90;;;;;;6208988;23;20455;-68
2021/11/29 06:14:27;;;;;;;1.13;1.00;;;14.90;99.90;;;;;;6208865;23;20413;-67
2021/11/29 06:16:58;;;;;;;1.70;1.60;;;14.80;99.90;;;;;;6209108;23;20428;-68
2021/11/29 06:19:29;;;;;;;1.77;1.67;;;14.80;99.90;;;;;;6207625;23;20540;-68
2021/11/29 06:22:00;;;;;;;1.43;1.20;;;14.80;99.90;;;;;;6208552;23;20492;-68
2021/11/29 06:24:33;;;;;;;2.07;1.50;;;14.80;99.90;;;;;;6207780;23;20413;-69
2021/11/29 06:27:06;;;;;;;1.43;1.33;;;14.80;99.90;;;;;;6208273;23;20435;-69
2021/11/29 06:29:36;;;;;;;1.70;1.20;;;14.90;99.90;;;;;;6205001;23;20880;-67
2021/11/29 06:32:08;;;;;;;3.80;1.50;;;14.80;99.90;;;;;;6207354;23;20970;-68
2021/11/29 06:34:39;;;;;;;1.50;1.40;;;14.80;99.90;;;;;;6210202;23;20524;-68
2021/11/29 06:37:11;;;;;;;2.20;1.10;;;14.80;99.90;;;;;;6208433;23;20485;-68
2021/11/29 06:39:44;;;;;;;1.60;1.23;;;14.90;99.90;;;;;;6210191;23;20412;-68
2021/11/29 06:42:14;;;;;;;1.00;1.00;;;14.80;99.90;;;;;;6206245;23;20416;-70
2021/11/29 06:44:45;;;;;;;2.97;1.10;;;14.70;99.90;;;;;;6210406;23;20432;-68
2021/11/29 06:47:16;;;;;;;1.50;1.40;;;14.70;99.90;;;;;;6207509;23;20401;-68
2021/11/29 06:49:47;;;;;;;1.47;1.37;;;14.60;99.90;;;;;;6207613;23;20424;-68
2021/11/29 06:52:18;;;;;;;1.40;1.30;;;14.60;99.90;;;;;;6206179;23;20508;-69
2021/11/29 06:54:51;;;;;;;1.30;1.20;;;14.60;99.90;;;;;;6207789;23;20467;-69
2021/11/29 06:57:22;;;;;;;2.30;1.10;;;14.60;99.90;;;;;;6206110;23;20409;-67
2021/11/29 06:59:52;;;;;;;1.97;1.57;;;14.60;99.90;;;;;;6208664;23;20432;-68
2021/11/29 07:02:27;;;;;;;3.07;1.73;;;14.60;99.90;;;;;;6206121;23;20408;-68
2021/11/29 07:04:58;;;;;;;1.60;1.40;;;14.60;99.90;;;;;;6210229;23;20488;-69
2021/11/29 07:07:30;;;;;;;2.13;1.20;;;14.60;99.90;;;;;;6208622;23;20519;-67
2021/11/29 07:10:02;;;;;;;1.60;1.50;;;14.60;99.90;;;;;;6209186;23;20420;-67
2021/11/29 07:12:34;;;;;;;1.40;1.30;;;14.60;99.90;;;;;;6205993;23;20444;-68
2021/11/29 07:15:05;;;;;;;1.83;1.70;;;14.60;99.90;;;;;;6209964;23;20383;-69
2021/11/29 07:17:36;;;;;;;1.40;1.40;;;14.50;99.90;;;;;;6207719;23;20420;-68
2021/11/29 07:20:09;;;;;;;1.60;1.50;;;14.50;99.90;;;;;;6209043;23;20421;-68
2021/11/29 07:22:40;;;;;;;1.53;1.43;;;14.50;99.90;;;;;;6210387;23;20901;-68
2021/11/29 07:25:13;;;;;;;1.73;1.63;;;14.50;99.90;;;;;;6205889;23;20439;-68
2021/11/29 07:27:44;;;;;;;1.93;1.77;;;14.50;99.90;;;;;;6208313;23;21039;-68
2021/11/29 07:30:17;;;;;;;2.00;1.63;;;14.50;99.90;;;;;;6208249;23;20499;-68
2021/11/29 07:32:48;;;;;;;1.97;1.77;;;14.50;99.90;;;;;;6207990;23;20786;-68
2021/11/29 07:35:18;;;;;;;6.23;2.10;;;14.40;99.90;;;;;;6205397;23;20409;-68
2021/11/29 07:37:50;;;;;;;2.23;1.60;;;14.30;99.90;;;;;;6208154;23;20880;-68
2021/11/29 07:40:27;;;;;;;1.80;1.70;;;14.20;99.90;;;;;;6209526;23;20960;-68
2021/11/29 07:43:00;;;;;;;4.50;1.80;;;14.20;99.90;;;;;;6206857;23;20405;-68
2021/11/29 07:45:31;;;;;;;2.10;1.90;;;14.30;99.90;;;;;;6209691;23;20844;-68
2021/11/29 07:48:03;;;;;;;2.07;1.87;;;14.30;99.90;;;;;;6209285;23;20566;-68
2021/11/29 07:50:34;;;;;;;2.30;2.20;;;14.30;99.90;;;;;;6207739;23;20437;-68
2021/11/29 07:53:05;;;;;;;2.07;1.97;;;14.10;99.90;;;;;;6208964;23;20445;-68
2021/11/29 07:55:38;;;;;;;2.03;1.83;;;14.10;99.90;;;;;;6207810;23;20409;-69
2021/11/29 07:58:09;;;;;;;2.47;1.97;;;14.10;99.90;;;;;;6207942;23;20942;-68
2021/11/29 08:00:39;;;;;;;1.97;1.87;;;14.00;99.90;;;;;;6206975;23;20409;-69
2021/11/29 08:03:11;;;;;;;2.70;2.50;;;13.90;99.90;;;;;;6209100;23;20417;-68
2021/11/29 08:05:42;;;;;;;2.63;2.07;;;14.00;99.90;;;;;;6212190;23;20448;-68
2021/11/29 08:08:13;;;;;;;2.37;1.97;;;14.00;99.90;;;;;;6208647;23;20409;-68
2021/11/29 08:10:46;;;;;;;2.17;1.97;;;13.90;99.90;;;;;;6210468;23;20409;-68
2021/11/29 08:13:17;;;;;;;2.23;2.10;;;13.90;99.90;;;;;;6208022;23;20451;-68
2021/11/29 08:15:48;;;;;;;2.23;2.03;;;13.90;99.90;;;;;;6212581;23;20436;-68
2021/11/29 08:18:18;;;;;;;2.83;2.63;;;13.90;99.90;;;;;;6209265;23;20417;-68
2021/11/29 08:20:49;;;;;;;2.70;2.50;;;13.90;99.90;;;;;;6210805;23;20408;-68
2021/11/29 08:23:20;;;;;;;3.50;3.20;;;13.90;99.90;;;;;;6209204;23;20698;-68
2021/11/29 08:25:53;;;;;;;3.70;3.40;;;13.90;99.90;;;;;;6212625;23;20409;-69
2021/11/29 08:28:24;;;;;;;2.83;2.73;;;13.90;99.90;;;;;;6209558;23;20409;-68
2021/11/29 08:30:54;;;;;;;3.07;2.87;;;13.90;99.90;;;;;;6208295;23;20905;-68
2021/11/29 08:33:27;;;;;;;3.80;2.90;;;13.90;99.90;;;;;;6210893;23;20467;-68
2021/11/29 08:35:58;;;;;;;2.60;2.40;;;13.90;99.90;;;;;;6210537;23;20408;-68
2021/11/29 08:38:29;;;;;;;7.77;2.57;;;13.80;99.90;;;;;;6209785;23;20409;-68
2021/11/29 08:41:01;;;;;;;2.63;2.40;;;13.90;99.90;;;;;;6208194;23;20471;-69
2021/11/29 08:43:33;;;;;;;3.23;2.93;;;13.90;99.90;;;;;;6207881;23;20419;-68
2021/11/29 08:46:03;;;;;;;2.60;2.40;;;13.90;99.90;;;;;;6209521;23;20423;-68
2021/11/29 08:48:35;;;;;;;3.00;2.80;;;13.80;99.90;;;;;;6210974;23;20455;-68
2021/11/29 08:51:06;;;;;;;3.50;3.20;;;13.80;99.90;;;;;;6209841;23;20413;-68
2021/11/29 08:53:38;;;;;;;4.17;2.90;;;13.80;99.90;;;;;;6210758;23;21275;-68
2021/11/29 08:56:11;;;;;;;3.30;2.70;;;13.80;99.90;;;;;;6206944;23;20443;-69
2021/11/29 08:58:42;;;;;;;2.93;2.73;;;13.80;99.90;;;;;;6207524;23;20437;-69
2021/11/29 09:01:13;;;;;;;3.23;3.03;;;13.80;99.90;;;;;;6207986;23;20475;-69
2021/11/29 09:03:44;;;;;;;3.40;3.10;;;13.80;99.90;;;;;;6211239;23;20405;-67
2021/11/29 09:06:15;;;;;;;2.33;2.20;;;13.70;99.90;;;;;;6209789;23;20423;-67
2021/11/29 09:08:46;;;;;;;2.53;2.13;;;13.60;99.90;;;;;;6211269;23;20409;-67
2021/11/29 09:11:19;;;;;;;2.80;2.60;;;13.60;99.90;;;;;;6207446;23;20409;-67
2021/11/29 09:13:49;;;;;;;2.50;2.30;;;13.60;99.90;;;;;;6206965;23;20900;-67
2021/11/29 09:16:21;;;;;;;2.40;2.20;;;13.70;99.90;;;;;;6210104;23;20408;-67
2021/11/29 09:18:51;;;;;;;2.43;2.23;;;13.70;99.90;;;;;;6208008;23;20446;-67
2021/11/29 09:21:24;;;;;;;2.73;2.23;;;13.60;99.90;;;;;;6210295;23;20409;-67
2021/11/29 09:23:55;;;;;;;1.83;1.60;;;13.50;99.90;;;;;;6211251;23;20413;-67
2021/11/29 09:26:27;;;;;;;2.07;1.97;;;13.50;99.90;;;;;;6209956;23;20409;-67
2021/11/29 09:28:58;;;;;;;2.10;1.90;;;13.50;99.90;;;;;;6210778;23;20413;-67
2021/11/29 09:31:29;;;;;;;2.67;2.47;;;13.50;99.90;;;;;;6209192;23;20415;-67
2021/11/29 09:34:00;;;;;;;2.10;1.90;;;13.50;99.90;;;;;;6206511;23;20515;-67
2021/11/29 09:36:31;;;;;;;1.73;1.63;;;13.50;99.90;;;;;;6212022;23;20908;-67
2021/11/29 09:39:01;;;;;;;1.80;1.70;;;13.40;99.90;;;;;;6206777;23;20903;-68
2021/11/29 09:41:37;;;;;;;2.43;2.23;;;13.50;99.90;;;;;;6209488;23;20409;-67
2021/11/29 09:44:08;;;;;;;2.03;1.83;;;13.40;99.90;;;;;;6207579;23;20944;-68
2021/11/29 09:46:39;;;;;;;1.90;1.80;;;13.40;99.90;;;;;;6209217;23;20409;-68
2021/11/29 09:49:10;;;;;;;2.00;1.90;;;13.40;99.90;;;;;;6211003;23;20416;-70
2021/11/29 09:51:40;;;;;;;3.63;2.27;;;13.40;99.90;;;;;;6209759;23;20425;-69
2021/11/29 09:54:11;;;;;;;1.73;1.63;;;13.40;99.90;;;;;;6206358;23;20448;-73
2021/11/29 09:56:44;;;;;;;2.27;2.07;;;13.40;99.90;;;;;;6211413;23;20716;-69
2021/11/29 09:59:15;;;;;;;2.40;2.10;;;13.40;99.90;;;;;;6209537;23;20423;-69
2021/11/29 10:01:46;;;;;;;3.10;1.93;;;13.40;99.90;;;;;;6208907;23;20409;-73
2021/11/29 10:04:18;;;;;;;2.33;2.13;;;13.40;99.90;;;;;;6208663;23;20409;-68
2021/11/29 10:06:55;;;;;;;1.70;1.60;;;13.40;99.90;;;;;;6213343;23;20409;-68
2021/11/29 10:09:31;;;;;;;2.30;2.10;;;13.40;99.90;;;;;;6210484;23;20511;-72
2021/11/29 10:12:25;;;;;;;1.97;1.87;;;13.40;99.90;;;;;;6212665;23;20408;-68
2021/11/29 10:15:21;;;;;;;2.17;2.00;;;13.40;99.90;;;;;;6210016;23;20527;-68
2021/11/29 10:18:00;;;;;;;2.13;2.03;;;13.50;99.90;;;;;;6212297;23;20413;-67
2021/11/29 10:20:49;;;;;;;2.17;2.07;;;13.40;99.90;;;;;;6208694;23;20408;-69
2021/11/29 10:23:28;;;;;;;2.00;1.90;;;13.40;99.90;;;;;;6210613;23;20523;-69
2021/11/29 10:26:00;;;;;;;2.37;2.00;;;13.40;99.90;;;;;;6208921;23;20431;-69
2021/11/29 10:28:35;;;;;;;2.33;2.23;;;13.30;99.90;;;;;;6207096;23;20425;-69
2021/11/29 10:31:27;;;;;;;2.53;2.30;;;13.30;99.90;;;;;;6209749;23;20925;-68
2021/11/29 10:34:04;;;;;;;3.03;2.00;;;13.20;99.90;;;;;;6211428;23;20472;-67
2021/11/29 10:36:37;;;;;;;2.43;2.23;;;13.30;99.90;;;;;;6212248;23;20415;-68
2021/11/29 10:39:10;;;;;;;2.20;2.00;;;13.30;99.90;;;;;;6210408;23;20409;-75
2021/11/29 10:41:44;;;;;;;2.33;2.23;;;13.30;99.90;;;;;;6211329;23;20415;-73
2021/11/29 10:44:19;;;;;;;2.33;2.13;;;13.30;99.90;;;;;;6209015;23;20433;-69
2021/11/29 10:46:51;;;;;;;2.20;2.00;;;13.20;99.90;;;;;;6210349;23;20408;-68
2021/11/29 10:49:25;;;;;;;2.10;1.90;;;13.20;99.90;;;;;;6206387;23;20409;-68
2021/11/29 10:51:58;;;;;;;1.90;1.80;;;13.10;99.90;;;;;;6211042;23;20416;-69
2021/11/29 10:54:31;;;;;;;2.00;1.90;;;13.00;99.90;;;;;;6208441;23;20784;-70
2021/11/29 10:57:03;;;;;;;1.97;1.77;;;12.90;99.90;;;;;;6209218;23;20416;-69
2021/11/29 10:59:39;;;;;;;1.73;1.40;;;12.90;99.90;;;;;;6204905;23;20409;-72
2021/11/29 11:02:12;;;;;;;1.93;1.73;;;12.90;99.90;;;;;;6206596;23;20412;-68
2021/11/29 11:04:46;;;;;;;2.10;2.00;;;12.90;99.90;;;;;;6208702;23;20473;-69
2021/11/29 11:07:22;;;;;;;2.10;1.90;;;12.90;99.90;;;;;;6202345;23;20408;-68
2021/11/29 11:09:55;;;;;;;1.87;1.77;;;12.80;99.90;;;;;;6208471;23;20409;-69
2021/11/29 11:12:29;;;;;;;1.80;1.70;;;12.80;99.90;;;;;;6206959;23;20415;-67
2021/11/29 11:15:05;;;;;;;2.50;2.30;;;12.70;99.90;;;;;;6208713;23;20459;-68
2021/11/29 11:17:58;;;;;;;2.10;1.90;;;12.70;99.90;;;;;;6208735;23;20908;-71
2021/11/29 11:20:29;;;;;;;2.10;1.80;;;12.70;99.90;;;;;;6209457;23;20408;-72
2021/11/29 11:23:00;;;;;;;1.87;1.77;;;12.60;99.90;;;;;;6207991;23;20423;-71
2021/11/29 11:25:42;;;;;;;1.70;1.60;;;12.70;99.90;;;;;;6209117;23;20408;-72
2021/11/29 11:28:13;;;;;;;1.90;1.80;;;12.60;99.90;;;;;;6209323;23;20415;-74
2021/11/29 11:30:46;;;;;;;1.87;1.77;;;12.60;99.90;;;;;;6207740;23;20409;-69
2021/11/29 11:33:20;;;;;;;2.23;2.03;;;12.60;99.90;;;;;;6210861;23;20441;-75
2021/11/29 11:35:53;;;;;;;1.80;1.70;;;12.50;99.90;;;;;;6215617;23;20938;-71
2021/11/29 11:38:26;;;;;;;3.10;2.33;;;12.50;99.90;;;;;;6210728;23;20420;-71
2021/11/29 11:40:59;;;;;;;1.97;1.30;;;12.50;99.90;;;;;;6213606;23;20500;-71
2021/11/29 11:43:30;;;;;;;1.70;1.60;;;12.40;99.90;;;;;;6208892;23;20444;-73
2021/11/29 11:46:03;;;;;;;1.93;1.60;;;12.50;99.90;;;;;;6208929;23;20409;-74
2021/11/29 11:48:34;;;;;;;1.70;1.60;;;12.40;99.90;;;;;;6209554;23;20413;-71
2021/11/29 11:51:05;;;;;;;3.07;1.53;;;12.40;99.90;;;;;;6208712;23;20508;-70
2021/11/29 11:53:38;;;;;;;2.50;1.70;;;12.50;99.90;;;;;;6208023;23;20416;-70
2021/11/29 11:56:09;;;;;;;4.80;1.57;;;12.40;99.90;;;;;;6210889;23;20513;-71
2021/11/29 11:58:52;;;;;;;1.80;1.53;;;12.40;99.90;;;;;;6206657;23;20409;-70
2021/11/29 12:01:28;;;;;;;1.90;1.40;;;12.40;99.90;;;;;;6208090;23;20493;-70
2021/11/29 12:04:00;;;;;;;4.30;1.57;;;12.50;99.90;;;;;;6207374;23;20434;-71
2021/11/29 12:06:37;;;;;;;4.73;1.83;;;12.50;99.90;;;;;;6208587;23;20488;-70
2021/11/29 12:09:11;;;;;;;1.90;1.80;;;12.50;99.90;;;;;;6208125;23;20408;-71
2021/11/29 12:11:45;;;;;;;1.70;1.60;;;12.50;99.90;;;;;;6206495;23;20757;-71
2021/11/29 12:14:19;;;;;;;1.97;1.70;;;12.50;99.90;;;;;;6207145;23;20421;-70
2021/11/29 12:16:53;;;;;;;1.30;1.20;;;12.50;99.90;;;;;;6207193;23;20426;-70
2021/11/29 12:19:40;;;;;;;1.57;1.20;;;12.50;99.90;;;;;;6209182;23;20443;-69
2021/11/29 12:22:32;;;;;;;1.60;1.50;;;12.40;99.90;;;;;;6206537;23;20495;-70
2021/11/29 12:25:21;;;;;;;1.60;1.50;;;12.40;99.90;;;;;;6209682;23;20397;-71
2021/11/29 12:27:53;;;;;;;2.03;1.80;;;12.30;99.90;;;;;;6207126;23;20476;-70
2021/11/29 12:30:37;;;;;;;1.10;1.10;;;12.40;99.90;;;;;;6207050;23;20411;-71
2021/11/29 12:33:12;;;;;;;2.60;1.17;;;12.40;99.90;;;;;;6207682;23;20404;-70
2021/11/29 12:35:45;;;;;;;1.27;1.17;;;12.30;99.90;;;;;;6210470;23;20466;-70
2021/11/29 12:38:21;;;;;;;1.40;1.30;;;12.40;99.90;;;;;;6206322;23;20527;-70
2021/11/29 12:40:57;;;;;;;2.13;1.20;;;12.40;99.90;;;;;;6211465;23;20492;-71
2021/11/29 12:43:37;;;;;;;2.10;1.20;;;12.40;99.90;;;;;;6208480;23;20434;-71
2021/11/29 12:46:26;;;;;;;1.17;1.07;;;12.40;99.90;;;;;;6207808;23;20413;-70
2021/11/29 12:49:01;;;;;;;1.40;1.10;;;12.40;99.90;;;;;;6209046;23;20404;-71
2021/11/29 12:51:54;;;;;;;1.13;1.03;;;12.40;99.90;;;;;;6212573;23;20411;-70
2021/11/29 12:54:40;;;;;;;1.37;1.27;;;12.40;99.90;;;;;;6211685;23;20555;-70
2021/11/29 12:57:30;;;;;;;1.63;1.03;;;12.30;99.90;;;;;;6209606;23;20885;-70
2021/11/29 13:00:04;;;;;;;1.47;1.37;;;12.30;99.90;;;;;;6209662;23;20423;-70
2021/11/29 13:02:47;;;;;;;1.73;1.23;;;12.30;99.90;;;;;;6211852;23;20408;-70
2021/11/29 13:05:38;;;;;;;1.80;1.70;;;12.30;99.90;;;;;;6209390;23;20451;-69
2021/11/29 13:08:13;;;;;;;1.60;1.50;;;12.20;99.90;;;;;;6210259;23;20409;-70
2021/11/29 13:11:05;;;;;;;1.80;1.70;;;12.20;99.90;;;;;;6210172;23;20427;-70
2021/11/29 13:13:48;;;;;;;1.53;1.40;;;12.20;99.90;;;;;;6210014;23;20428;-70
2021/11/29 13:16:38;;;;;;;1.30;1.20;;;12.20;99.90;;;;;;6211909;23;20535;-70
2021/11/29 13:19:15;;;;;;;1.47;1.37;;;12.20;99.90;;;;;;6209813;23;20460;-70